createdAt,value
2019-02-28T00:01:03.730Z,30.00
2019-02-28T00:03:34.243Z,36.50
2019-02-28T00:06:04.567Z,33.20
2019-02-28T00:08:35.047Z,40.87
2019-02-28T00:11:06.037Z,32.73
2019-02-28T00:13:36.644Z,31.43
2019-02-28T00:16:08.047Z,33.97
2019-02-28T00:18:38.462Z,43.63
2019-02-28T00:21:08.849Z,38.77
2019-02-28T00:23:39.298Z,41.80
2019-02-28T00:26:11.562Z,51.47
2019-02-28T00:28:41.842Z,38.50
2019-02-28T00:31:15.297Z,42.97
2019-02-28T00:33:44.814Z,42.77
2019-02-28T00:36:16.364Z,48.03
2019-02-28T00:38:47.239Z,44.40
2019-02-28T00:41:17.669Z,46.60
2019-02-28T00:43:48.228Z,46.47
2019-02-28T00:46:18.694Z,48.13
2019-02-28T00:48:52.946Z,48.47
2019-02-28T00:51:22.868Z,57.73
2019-02-28T00:53:53.205Z,60.77
2019-02-28T00:56:23.649Z,52.20
2019-02-28T00:58:54.044Z,63.70
2019-02-28T01:01:24.404Z,58.50
2019-02-28T01:03:58.060Z,59.77
2019-02-28T01:06:26.892Z,55.83
2019-02-28T01:08:57.308Z,60.70
2019-02-28T01:11:27.728Z,61.87
2019-02-28T01:14:01.258Z,61.00
2019-02-28T01:16:30.159Z,60.90
2019-02-28T01:19:00.484Z,63.37
2019-02-28T01:21:30.791Z,58.80
2019-02-28T01:24:01.804Z,61.53
2019-02-28T01:26:32.273Z,63.07
2019-02-28T01:29:02.782Z,66.53
2019-02-28T01:31:33.212Z,67.47
2019-02-28T01:34:03.728Z,63.87
2019-02-28T01:36:34.148Z,58.80
2019-02-28T01:39:07.013Z,64.17
2019-02-28T01:41:38.298Z,56.57
2019-02-28T01:44:08.554Z,63.83
2019-02-28T01:46:38.883Z,61.43
2019-02-28T01:49:09.218Z,72.00
2019-02-28T01:51:39.580Z,68.77
2019-02-28T01:54:10.129Z,65.10
2019-02-28T01:56:40.614Z,69.67
2019-02-28T01:59:11.279Z,73.97
2019-02-28T02:01:41.649Z,70.23
2019-02-28T02:04:12.589Z,78.37
2019-02-28T02:06:43.508Z,75.57
2019-02-28T02:09:13.879Z,79.33
2019-02-28T02:11:44.277Z,78.60
2019-02-28T02:14:14.679Z,74.87
2019-02-28T02:16:45.043Z,69.33
2019-02-28T02:19:18.536Z,72.27
2019-02-28T02:21:47.583Z,76.63
2019-02-28T02:24:18.030Z,84.43
2019-02-28T02:26:48.449Z,85.83
2019-02-28T02:29:25.936Z,68.07
2019-02-28T02:32:01.097Z,80.83
2019-02-28T02:34:29.623Z,76.50
2019-02-28T02:37:01.274Z,82.87
2019-02-28T02:39:31.810Z,90.83
2019-02-28T02:42:02.189Z,90.37
2019-02-28T02:44:33.713Z,86.77
2019-02-28T02:47:04.086Z,90.47
2019-02-28T02:49:34.498Z,90.40
2019-02-28T02:52:04.903Z,90.57
2019-02-28T02:54:35.374Z,85.13
2019-02-28T02:57:05.736Z,93.90
2019-02-28T02:59:38.987Z,87.70
2019-02-28T03:02:08.846Z,87.03
2019-02-28T03:04:39.474Z,91.77
2019-02-28T03:07:09.922Z,93.67
2019-02-28T03:09:43.445Z,101.43
2019-02-28T03:12:12.536Z,90.03
2019-02-28T03:14:42.845Z,101.00
2019-02-28T03:17:13.265Z,93.53
2019-02-28T03:19:44.556Z,98.30
2019-02-28T03:22:15.006Z,94.70
2019-02-28T03:24:50.648Z,97.40
2019-02-28T03:27:19.053Z,103.17
2019-02-28T03:29:49.643Z,90.97
2019-02-28T03:32:19.989Z,95.73
2019-02-28T03:34:58.104Z,94.83
2019-02-28T03:37:22.501Z,92.13
2019-02-28T03:39:52.833Z,93.87
2019-02-28T03:42:28.654Z,91.67
2019-02-28T03:44:57.082Z,97.83
2019-02-28T03:47:27.393Z,97.50
2019-02-28T03:49:57.815Z,87.97
2019-02-28T03:52:28.184Z,97.63
2019-02-28T03:55:03.283Z,98.80
2019-02-28T03:57:30.790Z,101.20
2019-02-28T04:00:01.269Z,98.23
2019-02-28T04:02:31.776Z,101.90
2019-02-28T04:05:03.029Z,108.93
2019-02-28T04:07:34.709Z,103.63
2019-02-28T04:10:05.981Z,98.87
2019-02-28T04:12:44.599Z,98.97
2019-02-28T04:15:11.316Z,102.17
2019-02-28T04:17:42.699Z,107.17
2019-02-28T04:20:13.255Z,98.70
2019-02-28T04:22:43.584Z,104.90
2019-02-28T04:25:14.043Z,101.30
2019-02-28T04:27:44.505Z,107.97
2019-02-28T04:30:15.009Z,105.10
2019-02-28T04:32:45.459Z,109.40
2019-02-28T04:35:15.852Z,113.60
2019-02-28T04:37:47.310Z,109.87
2019-02-28T04:40:17.950Z,110.33
2019-02-28T04:42:48.323Z,108.67
2019-02-28T04:45:18.824Z,113.07
2019-02-28T04:47:49.181Z,109.70
2019-02-28T04:50:19.483Z,119.00
2019-02-28T04:53:08.907Z,116.93
2019-02-28T04:55:39.415Z,112.93
2019-02-28T04:58:09.868Z,125.40
2019-02-28T05:00:40.290Z,110.67
2019-02-28T05:03:10.675Z,110.40
2019-02-28T05:05:41.284Z,110.00
2019-02-28T05:08:11.675Z,118.83
2019-02-28T05:10:42.061Z,121.70
2019-02-28T05:13:14.299Z,113.60
2019-02-28T05:15:44.463Z,120.17
2019-02-28T05:18:14.880Z,123.77
2019-02-28T05:20:46.055Z,118.03
2019-02-28T05:23:16.515Z,127.53
2019-02-28T05:25:49.132Z,130.87
2019-02-28T05:28:18.928Z,130.37
2019-02-28T05:30:50.253Z,128.33
2019-02-28T05:33:21.561Z,129.37
2019-02-28T05:35:52.054Z,136.87
2019-02-28T05:38:22.759Z,122.93
2019-02-28T05:40:55.433Z,129.73
2019-02-28T05:43:29.277Z,121.03
2019-02-28T05:45:59.941Z,143.93
2019-02-28T05:48:30.364Z,135.77
2019-02-28T05:51:00.705Z,132.67
2019-02-28T05:53:31.052Z,133.13
2019-02-28T05:56:01.597Z,113.63
2019-02-28T05:58:31.966Z,128.13
2019-02-28T06:01:02.562Z,142.03
2019-02-28T06:03:33.228Z,129.03
2019-02-28T06:06:03.729Z,133.83
2019-02-28T06:08:35.508Z,133.10
2019-02-28T06:11:06.186Z,131.20
2019-02-28T06:13:37.147Z,147.00
2019-02-28T06:16:11.048Z,130.97
2019-02-28T06:18:39.871Z,136.13
2019-02-28T06:21:10.451Z,133.60
2019-02-28T06:23:41.579Z,144.93
2019-02-28T06:26:12.079Z,140.00
2019-02-28T06:28:42.489Z,137.93
2019-02-28T06:31:14.532Z,139.87
2019-02-28T06:33:46.296Z,139.90
2019-02-28T06:36:16.729Z,138.33
2019-02-28T06:38:47.075Z,129.70
2019-02-28T06:41:17.819Z,148.20
2019-02-28T06:43:50.268Z,138.93
2019-02-28T06:46:20.340Z,140.57
2019-02-28T06:48:50.797Z,143.10
2019-02-28T06:51:21.360Z,141.60
2019-02-28T06:53:51.785Z,136.63
2019-02-28T06:56:23.121Z,136.43
2019-02-28T06:58:53.781Z,140.90
2019-02-28T07:01:24.282Z,142.20
2019-02-28T07:03:54.693Z,137.97
2019-02-28T07:06:25.189Z,142.43
2019-02-28T07:08:55.790Z,145.83
2019-02-28T07:11:26.766Z,133.30
2019-02-28T07:13:57.170Z,131.33
2019-02-28T07:16:30.739Z,138.27
2019-02-28T07:18:59.705Z,144.00
2019-02-28T07:21:30.220Z,137.63
2019-02-28T07:24:02.468Z,129.47
2019-02-28T07:26:32.890Z,131.93
2019-02-28T07:29:03.613Z,137.53
2019-02-28T07:31:34.146Z,138.47
2019-02-28T07:34:04.691Z,141.30
2019-02-28T07:36:35.084Z,132.33
2019-02-28T07:39:06.487Z,132.57
2019-02-28T07:41:36.944Z,130.13
2019-02-28T07:44:07.625Z,138.77
2019-02-28T07:46:38.786Z,130.87
2019-02-28T07:49:10.762Z,124.90
2019-02-28T07:51:41.455Z,127.03
2019-02-28T07:54:12.568Z,127.80
2019-02-28T07:56:44.371Z,127.63
2019-02-28T07:59:14.800Z,141.77
2019-02-28T08:01:45.480Z,126.53
2019-02-28T08:04:18.576Z,126.57
2019-02-28T08:06:48.060Z,132.40
2019-02-28T08:09:25.866Z,133.73
2019-02-28T08:11:56.781Z,130.30
2019-02-28T08:14:27.477Z,131.40
2019-02-28T08:16:57.948Z,124.03
2019-02-28T08:19:28.487Z,128.30
2019-02-28T08:21:59.226Z,146.13
2019-02-28T08:24:29.653Z,122.57
2019-02-28T08:27:00.011Z,117.87
2019-02-28T08:29:30.620Z,135.67
2019-02-28T08:32:06.735Z,124.00
2019-02-28T08:34:33.301Z,128.60
2019-02-28T08:37:03.792Z,133.20
2019-02-28T08:39:34.175Z,137.20
2019-02-28T08:42:04.949Z,130.30
2019-02-28T08:44:35.646Z,128.67
2019-02-28T08:47:06.367Z,127.20
2019-02-28T08:49:42.174Z,139.17
2019-02-28T08:52:09.422Z,129.40
2019-02-28T08:54:39.846Z,124.13
2019-02-28T08:57:10.482Z,125.63
2019-02-28T08:59:41.070Z,126.23
2019-02-28T09:02:14.522Z,138.63
2019-02-28T09:04:44.973Z,134.37
2019-02-28T09:07:16.078Z,130.87
2019-02-28T09:09:46.736Z,130.57
2019-02-28T09:12:17.486Z,129.33
2019-02-28T09:14:48.158Z,129.70
2019-02-28T09:17:19.382Z,129.40
2019-02-28T09:19:50.197Z,131.90
2019-02-28T09:22:20.555Z,127.80
2019-02-28T09:24:52.181Z,127.73
2019-02-28T09:27:22.746Z,145.77
2019-02-28T09:29:54.883Z,137.07
2019-02-28T09:32:25.598Z,138.63
2019-02-28T09:34:56.052Z,139.67
2019-02-28T09:37:29.544Z,137.77
2019-02-28T09:39:58.711Z,141.93
2019-02-28T09:42:29.265Z,137.87
2019-02-28T09:44:59.687Z,136.27
2019-02-28T09:47:30.376Z,136.93
2019-02-28T09:50:00.838Z,135.90
2019-02-28T09:52:31.390Z,142.77
2019-02-28T09:55:01.832Z,147.27
2019-02-28T09:57:32.226Z,138.53
2019-02-28T10:00:02.851Z,130.17
2019-02-28T10:02:35.158Z,139.97
2019-02-28T10:05:07.569Z,128.30
2019-02-28T10:07:38.016Z,131.93
2019-02-28T10:10:13.751Z,127.40
2019-02-28T10:12:44.292Z,114.77
2019-02-28T10:15:16.788Z,132.20
2019-02-28T10:17:47.944Z,148.07
2019-02-28T10:20:27.068Z,127.87
2019-02-28T10:22:56.070Z,137.17
2019-02-28T10:25:26.732Z,135.53
2019-02-28T10:28:01.390Z,128.43
2019-02-28T10:30:32.068Z,131.80
2019-02-28T10:33:02.284Z,129.93
2019-02-28T10:35:33.550Z,124.93
2019-02-28T10:38:05.246Z,129.47
2019-02-28T10:40:35.793Z,128.10
2019-02-28T10:43:06.547Z,142.50
2019-02-28T10:45:41.426Z,135.10
2019-02-28T10:48:10.478Z,130.27
2019-02-28T10:50:41.151Z,130.53
2019-02-28T10:53:11.992Z,145.07
2019-02-28T10:55:42.351Z,127.70
2019-02-28T10:58:15.531Z,130.97
2019-02-28T11:00:45.623Z,134.50
2019-02-28T11:03:16.742Z,134.40
2019-02-28T11:05:53.413Z,126.27
2019-02-28T11:08:19.922Z,129.70
2019-02-28T11:10:50.435Z,126.00
2019-02-28T11:13:21.039Z,127.93
2019-02-28T11:15:52.067Z,127.73
2019-02-28T11:18:22.506Z,127.63
2019-02-28T11:20:53.275Z,133.57
2019-02-28T11:23:24.032Z,132.40
2019-02-28T11:25:55.656Z,131.63
2019-02-28T11:28:28.397Z,127.90
2019-02-28T11:30:58.612Z,130.03
2019-02-28T11:33:29.520Z,138.23
2019-02-28T11:36:00.201Z,125.83
2019-02-28T11:38:30.652Z,134.30
2019-02-28T11:41:01.117Z,131.60
2019-02-28T11:43:37.380Z,129.60
2019-02-28T11:46:16.441Z,127.93
2019-02-28T11:48:46.791Z,133.60
2019-02-28T11:51:22.996Z,133.13
2019-02-28T11:53:53.421Z,127.50
2019-02-28T11:56:25.541Z,126.03
2019-02-28T11:58:55.709Z,123.20
2019-02-28T12:01:26.017Z,125.30
2019-02-28T12:03:56.286Z,123.60
2019-02-28T12:06:26.567Z,129.40
2019-02-28T12:08:56.953Z,123.53
2019-02-28T12:11:27.193Z,136.73
2019-02-28T12:13:57.481Z,122.67
2019-02-28T12:16:27.751Z,123.10
2019-02-28T12:18:58.048Z,141.87
2019-02-28T12:21:28.318Z,122.73
2019-02-28T12:24:00.568Z,132.03
2019-02-28T12:26:30.797Z,130.37
2019-02-28T12:29:01.109Z,127.30
2019-02-28T12:31:32.053Z,131.30
2019-02-28T12:34:03.558Z,125.73
2019-02-28T12:36:33.879Z,131.63
2019-02-28T12:39:05.374Z,125.00
2019-02-28T12:41:37.356Z,122.77
2019-02-28T12:44:07.881Z,137.17
2019-02-28T12:46:38.452Z,123.97
2019-02-28T12:49:08.753Z,125.40
2019-02-28T12:51:39.604Z,115.60
2019-02-28T12:54:10.606Z,123.17
2019-02-28T12:56:40.917Z,129.37
2019-02-28T12:59:11.193Z,123.67
2019-02-28T13:01:41.534Z,125.10
2019-02-28T13:04:11.842Z,119.03
2019-02-28T13:06:42.141Z,128.13
2019-02-28T13:09:13.628Z,127.50
2019-02-28T13:11:44.992Z,120.17
2019-02-28T13:14:15.225Z,135.47
2019-02-28T13:16:45.717Z,124.77
2019-02-28T13:19:16.374Z,122.37
2019-02-28T13:21:49.188Z,123.43
2019-02-28T13:24:19.474Z,126.17
2019-02-28T13:26:49.969Z,125.93
2019-02-28T13:29:22.228Z,119.77
2019-02-28T13:31:52.836Z,129.83
2019-02-28T13:34:25.192Z,127.97
2019-02-28T13:37:01.888Z,135.20
2019-02-28T13:39:31.762Z,124.67
2019-02-28T13:42:03.261Z,129.50
2019-02-28T13:44:36.384Z,132.57
2019-02-28T13:47:09.337Z,125.30
2019-02-28T13:49:38.448Z,130.30
2019-02-28T13:52:09.323Z,130.00
2019-02-28T13:54:42.105Z,128.97
2019-02-28T13:57:12.131Z,135.50
2019-02-28T13:59:42.625Z,131.07
2019-02-28T14:02:13.660Z,130.27
2019-02-28T14:04:44.218Z,133.53
2019-02-28T14:07:14.644Z,136.10
2019-02-28T14:09:45.257Z,131.50
2019-02-28T14:12:16.959Z,136.50
2019-02-28T14:14:47.957Z,124.30
2019-02-28T14:17:18.482Z,127.77
2019-02-28T14:19:48.918Z,138.47
2019-02-28T14:22:19.510Z,124.50
2019-02-28T14:24:50.151Z,131.43
2019-02-28T14:27:21.642Z,131.03
2019-02-28T14:29:52.593Z,136.20
2019-02-28T14:32:22.947Z,139.10
2019-02-28T14:34:53.508Z,126.77
2019-02-28T14:37:23.921Z,130.43
2019-02-28T14:39:54.449Z,130.53
2019-02-28T14:42:24.974Z,134.50
2019-02-28T14:44:55.382Z,130.43
2019-02-28T14:47:28.497Z,126.33
2019-02-28T14:49:57.971Z,124.10
2019-02-28T14:52:29.652Z,133.53
2019-02-28T14:55:00.219Z,127.93
2019-02-28T14:57:30.521Z,124.33
2019-02-28T15:00:06.203Z,123.70
2019-02-28T15:02:33.365Z,126.37
2019-02-28T15:05:04.069Z,117.67
2019-02-28T15:07:35.338Z,128.20
2019-02-28T15:10:09.103Z,122.57
2019-02-28T15:12:39.939Z,136.60
2019-02-28T15:15:18.063Z,125.43
2019-02-28T15:17:48.685Z,132.80
2019-02-28T15:20:20.627Z,125.70
2019-02-28T15:22:52.488Z,133.63
2019-02-28T15:25:23.738Z,126.00
2019-02-28T15:27:54.223Z,130.80
2019-02-28T15:30:27.090Z,131.20
2019-02-28T15:32:57.776Z,129.67
2019-02-28T15:35:28.467Z,130.83
2019-02-28T15:37:59.190Z,135.27
2019-02-28T15:40:32.099Z,128.77
2019-02-28T15:43:02.963Z,130.83
2019-02-28T15:45:39.232Z,130.63
2019-02-28T15:48:12.624Z,139.37
2019-02-28T15:50:58.503Z,134.47
2019-02-28T15:53:37.424Z,139.43
2019-02-28T15:56:13.237Z,122.63
2019-02-28T15:58:49.299Z,130.80
2019-02-28T16:01:32.359Z,124.03
2019-02-28T16:04:11.520Z,125.80
2019-02-28T16:06:47.146Z,130.03
2019-02-28T16:09:22.241Z,144.57
2019-02-28T16:12:01.928Z,132.53
2019-02-28T16:14:34.825Z,146.23
2019-02-28T16:17:06.348Z,149.20
2019-02-28T16:19:37.410Z,158.00
2019-02-28T16:22:07.934Z,151.07
2019-02-28T16:24:45.495Z,142.13
2019-02-28T16:27:17.722Z,160.33
2019-02-28T16:29:52.251Z,161.10
2019-02-28T16:32:23.720Z,148.00
2019-02-28T16:34:54.610Z,149.33
2019-02-28T16:37:25.385Z,164.20
2019-02-28T16:39:56.340Z,164.37
2019-02-28T16:42:26.835Z,160.40
2019-02-28T16:44:57.389Z,160.63
2019-02-28T16:47:27.991Z,168.03
2019-02-28T16:49:58.619Z,147.80
2019-02-28T16:52:31.245Z,147.10
2019-02-28T16:55:01.744Z,166.77
2019-02-28T16:57:32.915Z,164.70
2019-02-28T17:00:04.073Z,160.57
2019-02-28T17:02:42.603Z,154.97
2019-02-28T17:05:13.358Z,158.97
2019-02-28T17:07:44.507Z,164.17
2019-02-28T17:10:18.198Z,160.87
2019-02-28T17:13:02.900Z,161.00
2019-02-28T17:15:41.609Z,159.97
2019-02-28T17:18:18.429Z,165.63
2019-02-28T17:20:47.847Z,165.13
2019-02-28T17:23:19.259Z,179.70
2019-02-28T17:25:49.806Z,173.63
2019-02-28T17:28:37.894Z,175.43
2019-02-28T17:31:29.530Z,157.73
2019-02-28T17:33:59.949Z,159.83
2019-02-28T17:36:37.577Z,162.20
2019-02-28T17:39:17.281Z,163.17
2019-02-28T17:41:55.291Z,156.67
2019-02-28T17:44:52.371Z,167.53
2019-02-28T17:48:15.040Z,161.03
2019-02-28T17:51:14.991Z,169.37
2019-02-28T17:54:17.187Z,151.50
2019-02-28T17:57:16.474Z,167.53
2019-02-28T18:00:17.502Z,160.73
2019-02-28T18:03:27.976Z,164.53
2019-02-28T18:06:47.321Z,164.87
2019-02-28T18:09:34.816Z,163.20
2019-02-28T18:12:58.743Z,159.60
2019-02-28T18:15:49.562Z,153.10
2019-02-28T18:18:50.351Z,165.00
2019-02-28T18:21:52.363Z,149.63
2019-02-28T18:25:03.499Z,135.50
2019-02-28T18:28:30.974Z,126.63
2019-02-28T18:31:29.748Z,93.23
2019-02-28T18:34:07.095Z,79.17
2019-02-28T18:36:40.244Z,82.43
2019-02-28T18:39:15.861Z,82.17
2019-02-28T18:41:46.407Z,83.37
2019-02-28T18:44:16.913Z,76.00
2019-02-28T18:46:49.031Z,73.23
2019-02-28T18:49:19.487Z,75.47
2019-02-28T18:51:49.859Z,69.77
2019-02-28T18:54:20.340Z,68.80
2019-02-28T18:56:51.020Z,70.83
2019-02-28T18:59:21.517Z,76.87
2019-02-28T19:01:52.209Z,72.10
2019-02-28T19:04:22.803Z,65.83
2019-02-28T19:06:55.548Z,64.67
2019-02-28T19:09:26.252Z,58.10
2019-02-28T19:11:56.716Z,60.83
2019-02-28T19:14:27.166Z,57.93
2019-02-28T19:16:57.626Z,66.27
2019-02-28T19:19:28.169Z,58.70
2019-02-28T19:21:58.640Z,66.50
2019-02-28T19:24:29.198Z,67.77
2019-02-28T19:26:59.723Z,56.07
2019-02-28T19:29:30.211Z,57.37
2019-02-28T19:32:01.176Z,60.43
2019-02-28T19:34:31.810Z,57.53
2019-02-28T19:37:07.288Z,55.87
2019-02-28T19:39:37.870Z,60.67
2019-02-28T19:42:08.351Z,56.10
2019-02-28T19:44:39.124Z,57.20
2019-02-28T19:47:09.474Z,62.53
2019-02-28T19:49:39.800Z,59.33
2019-02-28T19:52:10.377Z,54.53
2019-02-28T19:54:40.839Z,57.20
2019-02-28T19:57:11.331Z,56.90
2019-02-28T19:59:42.710Z,60.67
2019-02-28T20:02:15.169Z,62.63
2019-02-28T20:04:45.546Z,58.90
2019-02-28T20:07:16.244Z,67.37
2019-02-28T20:09:46.766Z,55.53
2019-02-28T20:12:17.371Z,57.27
2019-02-28T20:14:47.756Z,59.73
2019-02-28T20:17:18.261Z,62.13
2019-02-28T20:19:48.680Z,60.33
2019-02-28T20:22:19.021Z,65.03
2019-02-28T20:24:49.473Z,72.47
2019-02-28T20:27:19.996Z,62.07
2019-02-28T20:29:55.044Z,67.93
2019-02-28T20:32:22.695Z,65.20
2019-02-28T20:34:53.330Z,68.47
2019-02-28T20:37:23.794Z,72.23
2019-02-28T20:39:54.185Z,71.53
2019-02-28T20:42:24.751Z,75.60
2019-02-28T20:44:55.337Z,81.03
2019-02-28T20:47:25.934Z,96.60
2019-02-28T20:49:57.002Z,84.70
2019-02-28T20:52:27.730Z,88.23
2019-02-28T20:54:58.350Z,88.43
2019-02-28T20:57:28.896Z,98.00
2019-02-28T20:59:59.436Z,107.47
2019-02-28T21:02:29.840Z,108.17
2019-02-28T21:05:00.334Z,107.67
2019-02-28T21:07:32.145Z,119.47
2019-02-28T21:10:05.157Z,118.63
2019-02-28T21:12:37.314Z,120.43
2019-02-28T21:15:11.013Z,123.37
2019-02-28T21:17:44.501Z,138.53
2019-02-28T21:20:14.946Z,136.17
2019-02-28T21:22:45.279Z,119.20
2019-02-28T21:25:17.355Z,120.43
2019-02-28T21:27:48.419Z,120.87
2019-02-28T21:30:20.826Z,120.90
2019-02-28T21:32:55.321Z,112.00
2019-02-28T21:35:26.462Z,119.93
2019-02-28T21:37:57.404Z,107.77
2019-02-28T21:40:28.204Z,116.67
2019-02-28T21:42:59.547Z,125.07
2019-02-28T21:45:30.264Z,101.30
2019-02-28T21:48:04.168Z,102.00
2019-02-28T21:50:34.821Z,104.07
2019-02-28T21:53:05.529Z,92.90
2019-02-28T21:55:36.143Z,81.87
2019-02-28T21:58:06.799Z,89.50
2019-02-28T22:00:38.101Z,85.13
2019-02-28T22:03:08.664Z,87.83
2019-02-28T22:05:39.165Z,87.33
2019-02-28T22:08:09.715Z,80.30
2019-02-28T22:10:40.204Z,74.03
2019-02-28T22:13:10.728Z,89.03
2019-02-28T22:15:41.617Z,79.73
2019-02-28T22:18:12.379Z,82.30
2019-02-28T22:20:43.007Z,93.70
2019-02-28T22:23:13.830Z,96.57
2019-02-28T22:25:44.376Z,93.27
2019-02-28T22:28:15.441Z,89.57
2019-02-28T22:31:04.845Z,94.50
2019-02-28T22:33:48.616Z,92.87
2019-02-28T22:36:23.876Z,99.40
2019-02-28T22:38:54.325Z,89.63
2019-02-28T22:41:24.996Z,89.63
2019-02-28T22:43:55.587Z,93.57
2019-02-28T22:46:26.024Z,91.00
2019-02-28T22:48:56.546Z,102.47
2019-02-28T22:51:27.058Z,97.63
2019-02-28T22:53:57.873Z,102.03
2019-02-28T22:56:28.494Z,101.37
2019-02-28T22:58:59.281Z,110.27
2019-02-28T23:01:31.462Z,107.23
2019-02-28T23:04:02.545Z,104.83
2019-02-28T23:06:32.817Z,106.90
2019-02-28T23:09:04.196Z,106.17
2019-02-28T23:11:36.226Z,116.20
2019-02-28T23:14:06.660Z,112.93
2019-02-28T23:16:36.951Z,104.67
2019-02-28T23:19:07.400Z,113.93
2019-02-28T23:21:37.811Z,104.83
2019-02-28T23:24:09.291Z,105.07
2019-02-28T23:27:09.181Z,109.07
2019-02-28T23:29:41.445Z,103.37
2019-02-28T23:32:41.254Z,107.53
2019-02-28T23:35:21.551Z,98.30
2019-02-28T23:37:52.273Z,93.13
2019-02-28T23:40:22.749Z,97.20
2019-02-28T23:42:53.209Z,97.77
2019-02-28T23:45:23.580Z,99.40
2019-02-28T23:47:53.942Z,102.90
2019-02-28T23:50:24.571Z,90.43
2019-02-28T23:52:55.087Z,96.43
2019-02-28T23:55:25.656Z,108.13
2019-02-28T23:57:56.047Z,88.27
